This is the latest recevied weather packets stored in our database for station/object YO8PIC-12. If no packets are shown the sender has not sent any weather packets the latest 10 day(s).
| Time | Temp. | Humidity | Pressure | Rain* | Wind** | Luminosity | Snow |
|---|---|---|---|---|---|---|---|
| 1787700038 | 18.89° C | 86% | 1022.3 hPa | - | - | - | - |
| 1787699438 | 19.44° C | 83% | 1022.2 hPa | - | - | - | - |
| 1787698838 | 20.56° C | 79% | 1022 hPa | - | - | - | - |
| 1787698238 | 20° C | 81% | 1022 hPa | - | - | - | - |
| 1787697638 | 19.44° C | 82% | 1022.2 hPa | - | - | - | - |
| 1787697038 | 18.89° C | 82% | 1022.1 hPa | - | - | - | - |
| 1787696438 | 19.44° C | 81% | 1021.7 hPa | - | - | - | - |
| 1787695838 | 20° C | 80% | 1021.8 hPa | - | - | - | - |
| 1787695238 | 20° C | 81% | 1021.9 hPa | - | - | - | - |
| 1787694638 | 19.44° C | 82% | 1021.5 hPa | - | - | - | - |
| 1787694038 | 19.44° C | 80% | 1021 hPa | - | - | - | - |
| 1787693438 | 19.44° C | 80% | 1020.9 hPa | - | - | - | - |
| 1787692838 | 20° C | 79% | 1021 hPa | - | - | - | - |
| 1787692242 | 20° C | 78% | 1021 hPa | - | - | - | - |
| 1787691638 | 20.56° C | 78% | 1021 hPa | - | - | - | - |
| 1787691038 | 20.56° C | 77% | 1021.1 hPa | - | - | - | - |
| 1787690438 | 20.56° C | 75% | 1021 hPa | - | - | - | - |
| 1787689838 | 20.56° C | 73% | 1020.9 hPa | - | - | - | - |
| 1787689238 | 21.67° C | 69% | 1020.6 hPa | - | - | - | - |
| 1787688638 | 24.44° C | 50% | 1020.4 hPa | - | - | - | - |
| 1787688038 | 25° C | 50% | 1020.2 hPa | - | - | - | - |
| 1787687438 | 26.11° C | 44% | 1019.7 hPa | - | - | - | - |
| 1787686838 | 26.67° C | 43% | 1019.5 hPa | - | - | - | - |
| 1787686238 | 26.67° C | 43% | 1019.5 hPa | - | - | - | - |
| 1787685638 | 26.11° C | 44% | 1019.8 hPa | - | - | - | - |
* Rain since midnight (hover to see other rain measurements)
** Current wind speed in m/s (hover to see current wind gust speed)